Terminal Aerodrome Forecast
Issued by NWS

Home | Current Version | Previous Version | Text Only | Print | Product List | Glossary On
Versions: 1 2 3 4 5 6 7 8 9 10 11 12 13 14
000
FTUS44 KEPZ 292300
TAFDMN
TAF
KDMN 292332Z 3000/3024 04007KT P6SM VCTS BKN070CB BKN140 BKN250
      TEMPO 3000/3002 VRB30G45KT 4SM TSRAGS BKN050CB OVC100
     FM300500 27006KT P6SM SCT080 SCT120 BKN250
     FM301800 29009KT P6SM FEW080 SCT250=

USA.gov is the U.S. government's official web portal to all federal, state and local government web resources and services.